Time;durP1;ratioP1;P1;durP2;ratioP2;P2;SDS_P1;SDS_P2;PMS_P1;PMS_P2;Temp;Humidity;BMP_temperature;BMP_pressure;BME280_temperature;BME280_humidity;BME280_pressure;Samples;Min_cycle;Max_cycle;Signal;HPM_P1;HPM_P2
2021/06/21 00:01:19;;;;;;;0.80;0.70;;;21.20;99.90;;;21.53;100.00;-21264.56;5071229;28;20462;-72
2021/06/21 00:03:48;;;;;;;0.80;0.70;;;21.20;99.90;;;21.54;100.00;-21264.84;5073541;28;20454;-72
2021/06/21 00:06:15;;;;;;;0.77;0.60;;;21.20;99.90;;;21.57;100.00;-21265.53;5074460;28;20874;-72
2021/06/21 00:08:43;;;;;;;0.80;0.60;;;21.20;99.90;;;21.62;100.00;-21267.03;5073774;28;20458;-73
2021/06/21 00:11:11;;;;;;;0.80;0.70;;;21.10;99.90;;;21.64;100.00;-21267.56;5071937;28;20437;-73
2021/06/21 00:13:39;;;;;;;0.80;0.70;;;21.20;99.90;;;21.65;100.00;-21267.84;5074748;28;20427;-73
2021/06/21 00:16:09;;;;;;;0.70;0.60;;;21.20;99.90;;;21.66;100.00;-21268.13;5072073;28;20439;-72
2021/06/21 00:18:37;;;;;;;0.77;0.67;;;21.20;99.90;;;21.48;100.00;-21263.19;5072205;28;20447;-72
2021/06/21 00:21:05;;;;;;;0.70;0.60;;;21.10;99.90;;;21.54;100.00;-21264.69;5054146;28;20480;-73
2021/06/21 00:23:32;;;;;;;0.80;0.73;;;21.10;99.90;;;21.47;100.00;-21262.94;5072877;28;20520;-72
2021/06/21 00:25:59;;;;;;;0.70;0.60;;;21.10;99.90;;;21.48;100.00;-21263.19;5071226;28;20819;-72
2021/06/21 00:28:27;;;;;;;0.80;0.70;;;21.10;99.90;;;21.44;100.00;-21262.13;5073007;28;20449;-72
2021/06/21 00:30:55;;;;;;;0.80;0.70;;;21.00;99.90;;;21.42;100.00;-21261.56;5072789;28;20455;-72
2021/06/21 00:33:24;;;;;;;0.70;0.60;;;21.00;99.90;;;21.43;100.00;-21261.84;5072064;28;20431;-72
2021/06/21 00:35:51;;;;;;;0.70;0.60;;;21.00;99.90;;;21.35;100.00;-21259.66;5072421;28;20518;-72
2021/06/21 00:38:19;;;;;;;0.80;0.60;;;21.00;99.90;;;21.34;100.00;-21259.53;5073111;28;20863;-72
2021/06/21 00:40:46;;;;;;;0.70;0.60;;;21.00;99.90;;;21.32;100.00;-21258.97;5071080;28;20530;-72
2021/06/21 00:43:14;;;;;;;0.80;0.70;;;21.00;99.90;;;21.31;100.00;-21258.56;5073512;28;20855;-72
2021/06/21 00:45:41;;;;;;;0.80;0.70;;;20.90;99.90;;;21.32;100.00;-21258.84;5073580;28;20467;-72
2021/06/21 00:48:09;;;;;;;0.80;0.70;;;21.00;99.90;;;21.31;100.00;-21258.56;5056590;28;20440;-72
2021/06/21 00:50:39;;;;;;;0.70;0.60;;;20.90;99.90;;;21.32;100.00;-21258.97;5056468;28;20760;-72
2021/06/21 00:53:06;;;;;;;0.73;0.60;;;20.90;99.90;;;21.28;100.00;-21257.88;5071067;28;20456;-72
2021/06/21 00:55:36;;;;;;;0.70;0.70;;;20.90;99.90;;;21.28;100.00;-21257.88;5056856;28;20836;-72
2021/06/21 00:58:04;;;;;;;0.70;0.63;;;20.90;99.90;;;21.21;100.00;-21255.97;5055837;28;20470;-73
2021/06/21 01:00:31;;;;;;;0.70;0.60;;;20.90;99.90;;;21.18;100.00;-21255.16;5056550;28;20394;-72
2021/06/21 01:03:03;;;;;;;0.80;0.70;;;20.90;99.90;;;21.18;100.00;-21255.28;5055481;28;20456;-73
2021/06/21 01:05:35;;;;;;;0.80;0.70;;;20.90;99.90;;;21.18;100.00;-21255.28;5061126;28;20469;-73
2021/06/21 01:08:06;;;;;;;0.70;0.60;;;20.80;99.90;;;21.09;100.00;-21252.84;5076151;28;20489;-72
2021/06/21 01:10:35;;;;;;;1.20;1.10;;;20.80;99.90;;;21.11;100.00;-21253.25;5076217;28;20437;-73
2021/06/21 01:13:56;;;;;;;0.70;0.60;;;20.80;99.90;;;21.10;100.00;-21253.09;5077186;28;20420;-72
2021/06/21 01:16:29;;;;;;;0.80;0.70;;;20.80;99.90;;;21.10;100.00;-21253.09;5064839;28;20447;-72
2021/06/21 01:19:05;;;;;;;0.70;0.60;;;20.80;99.90;;;21.12;100.00;-21253.66;5057416;28;20926;-73
2021/06/21 01:22:30;;;;;;;0.80;0.70;;;20.80;99.90;;;21.18;100.00;-21255.28;5064321;28;20481;-72
2021/06/21 01:25:28;;;;;;;0.80;0.70;;;20.80;99.90;;;21.11;100.00;-21253.38;5055868;28;20497;-72
2021/06/21 01:28:07;;;;;;;0.80;0.70;;;20.80;99.90;;;21.07;100.00;-21252.16;5061419;28;20973;-72
2021/06/21 01:30:52;;;;;;;0.80;0.70;;;20.70;99.90;;;21.08;100.00;-21252.56;5064300;28;20428;-74
2021/06/21 01:33:22;;;;;;;0.80;0.70;;;20.70;99.90;;;21.05;100.00;-21251.59;5062161;28;20430;-73
2021/06/21 01:35:57;;;;;;;0.70;0.60;;;20.60;99.90;;;20.94;100.00;-18664.31;5075985;28;20429;-73
2021/06/21 01:38:30;;;;;;;0.80;0.70;;;20.50;99.90;;;20.91;100.00;-13487.25;5074503;28;20450;-73
2021/06/21 01:41:15;;;;;;;0.70;0.70;;;20.50;99.90;;;20.86;100.00;-7829.53;5076397;28;20846;-73
2021/06/21 01:43:44;;;;;;;0.70;0.60;;;20.40;99.90;;;20.92;100.00;-1660.59;5066834;28;20456;-73
2021/06/21 01:46:16;;;;;;;0.70;0.60;;;20.40;99.90;;;20.96;100.00;2938.03;5055789;28;20428;-73
2021/06/21 01:48:51;;;;;;;0.80;0.70;;;20.40;99.90;;;20.99;100.00;6832.00;5074353;28;20920;-73
2021/06/21 01:51:19;;;;;;;0.70;0.60;;;20.40;99.90;;;21.00;100.00;9193.09;5075981;28;20407;-73
2021/06/21 01:53:48;;;;;;;0.70;0.60;;;20.40;99.90;;;20.96;100.00;10703.75;5073543;28;20496;-72
2021/06/21 01:56:23;;;;;;;0.70;0.60;;;20.40;99.90;;;20.97;100.00;11652.88;5070299;28;20469;-72
2021/06/21 01:58:54;;;;;;;0.80;0.70;;;20.40;99.90;;;20.94;100.00;12431.28;5074455;28;20423;-73
2021/06/21 02:01:23;;;;;;;0.70;0.70;;;20.40;99.90;;;20.96;100.00;12892.31;5075295;28;20920;-72
2021/06/21 02:03:55;;;;;;;0.70;0.60;;;20.40;99.90;;;21.05;100.00;12768.63;5074209;28;20521;-73
2021/06/21 02:06:29;;;;;;;0.73;0.70;;;20.40;99.90;;;21.03;100.00;12299.97;5075772;28;20488;-72
2021/06/21 02:08:58;;;;;;;0.70;0.60;;;20.40;99.90;;;21.02;100.00;11707.94;5075476;28;20450;-72
2021/06/21 02:11:27;;;;;;;0.77;0.67;;;20.50;99.90;;;21.18;100.00;11290.34;5073812;28;20427;-72
2021/06/21 02:13:56;;;;;;;0.70;0.70;;;20.50;99.90;;;21.14;100.00;10695.06;5074990;28;20431;-72
2021/06/21 02:16:26;;;;;;;0.80;0.70;;;20.50;99.90;;;21.12;100.00;10419.44;5075717;28;20427;-73
2021/06/21 02:18:56;;;;;;;0.80;0.70;;;20.50;99.90;;;21.26;100.00;9692.31;5074931;28;20894;-72
2021/06/21 02:21:24;;;;;;;0.80;0.70;;;20.50;99.90;;;21.36;100.00;9267.81;5074538;28;20866;-72
2021/06/21 02:23:53;;;;;;;0.70;0.60;;;20.60;99.90;;;21.44;100.00;8603.41;5065103;28;20618;-72
2021/06/21 02:26:22;;;;;;;0.70;0.60;;;20.60;99.90;;;21.34;100.00;6933.28;5055105;28;20464;-72
2021/06/21 02:28:52;;;;;;;0.70;0.60;;;20.60;99.90;;;21.38;100.00;5438.63;5055851;28;20460;-71
2021/06/21 02:31:22;;;;;;;0.70;0.70;;;20.60;99.90;;;21.40;100.00;4129.16;5055628;28;20874;-73
2021/06/21 02:33:49;;;;;;;0.70;0.60;;;20.60;99.90;;;21.43;100.00;2283.81;5054717;28;20989;-72
2021/06/21 02:36:18;;;;;;;0.70;0.60;;;20.60;99.90;;;21.44;100.00;69.84;5055009;28;20860;-72
2021/06/21 02:38:46;;;;;;;0.80;0.70;;;20.70;99.90;;;21.29;100.00;-2553.25;5055724;28;21068;-73
2021/06/21 02:41:13;;;;;;;0.80;0.70;;;20.60;99.90;;;21.34;100.00;-4845.50;5072607;28;20938;-71
2021/06/21 02:43:41;;;;;;;0.70;0.67;;;20.60;99.90;;;21.29;100.00;-8269.25;5074665;28;21029;-72
2021/06/21 02:46:09;;;;;;;0.80;0.80;;;20.60;99.90;;;21.32;100.00;-11199.22;5073947;28;20414;-72
2021/06/21 02:48:36;;;;;;;0.70;0.60;;;20.50;99.90;;;21.19;100.00;-13169.59;5074853;28;20900;-72
2021/06/21 02:51:06;;;;;;;0.80;0.70;;;20.50;99.90;;;21.09;100.00;-14464.88;5072944;28;20427;-72
2021/06/21 02:53:45;;;;;;;0.70;0.60;;;20.40;99.90;;;21.14;100.00;-16927.53;5074137;28;20436;-73
2021/06/21 02:56:24;;;;;;;0.80;0.70;;;20.40;99.90;;;21.04;100.00;-18574.78;5074819;28;20399;-72
2021/06/21 02:59:01;;;;;;;0.80;0.70;;;20.40;99.90;;;21.07;100.00;-19441.88;5074037;28;20403;-72
2021/06/21 03:01:29;;;;;;;0.73;0.70;;;20.40;99.90;;;21.06;100.00;-20402.03;5073488;28;20790;-73
2021/06/21 03:03:59;;;;;;;0.80;0.70;;;20.40;99.90;;;20.90;100.00;-20871.50;5073333;28;20444;-71
2021/06/21 03:06:28;;;;;;;0.70;0.60;;;20.30;99.90;;;20.94;100.00;-20900.56;5074218;28;20446;-73
2021/06/21 03:08:57;;;;;;;0.70;0.60;;;20.30;99.90;;;20.94;100.00;-21099.16;5073380;28;20443;-72
2021/06/21 03:11:26;;;;;;;0.80;0.70;;;20.30;99.90;;;20.99;100.00;-21250.25;5073896;28;20504;-72
2021/06/21 03:13:55;;;;;;;0.70;0.60;;;20.30;99.90;;;20.83;100.00;-21245.88;5072961;28;20804;-73
2021/06/21 03:16:26;;;;;;;0.80;0.80;;;20.20;99.90;;;20.64;100.00;-21240.81;5064959;28;20424;-73
2021/06/21 03:18:55;;;;;;;0.80;0.70;;;20.20;99.90;;;20.71;100.00;-21242.75;5054217;28;20411;-72
2021/06/21 03:21:23;;;;;;;0.70;0.60;;;20.10;99.90;;;20.66;100.00;-21002.78;5054397;28;20409;-72
2021/06/21 03:23:53;;;;;;;0.70;0.60;;;20.00;99.90;;;20.72;100.00;-20838.94;5054159;28;20470;-73
2021/06/21 03:26:27;;;;;;;0.70;0.60;;;20.00;99.90;;;20.54;100.00;-20584.78;5065429;28;20501;-73
2021/06/21 03:28:57;;;;;;;0.70;0.70;;;20.00;99.90;;;20.59;100.00;-19730.81;5072884;28;20411;-73
2021/06/21 03:31:25;;;;;;;0.80;0.70;;;20.00;99.90;;;20.55;100.00;-18935.53;5072774;28;20435;-74
2021/06/21 03:33:54;;;;;;;0.70;0.60;;;19.90;99.90;;;20.51;100.00;-17758.09;5055537;28;20501;-73
2021/06/21 03:36:22;;;;;;;0.97;0.87;;;19.90;99.90;;;20.50;100.00;-16800.09;5074320;28;20406;-73
2021/06/21 03:38:49;;;;;;;0.70;0.70;;;19.90;99.90;;;20.53;100.00;-15327.66;5070544;28;20497;-72
2021/06/21 03:41:17;;;;;;;0.80;0.70;;;19.80;99.90;;;20.52;100.00;-13685.66;5073904;28;20433;-72
2021/06/21 03:43:46;;;;;;;0.70;0.60;;;19.80;99.90;;;20.50;100.00;-12279.94;5073474;28;20514;-73
2021/06/21 03:46:13;;;;;;;0.80;0.70;;;19.80;99.90;;;20.46;100.00;-10189.50;5072834;28;20458;-74
2021/06/21 03:48:41;;;;;;;0.70;0.60;;;19.70;99.90;;;20.38;100.00;-8107.88;5070654;28;20435;-73
2021/06/21 03:51:08;;;;;;;0.80;0.70;;;19.70;99.90;;;20.41;100.00;-6777.09;5071327;28;20510;-73
2021/06/21 03:53:36;;;;;;;0.70;0.60;;;19.70;99.90;;;20.38;100.00;-3581.63;5071809;28;20488;-73
2021/06/21 03:56:04;;;;;;;0.70;0.60;;;19.60;99.90;;;20.25;100.00;-1896.25;5069112;28;20494;-71
2021/06/21 03:58:32;;;;;;;0.70;0.60;;;19.60;99.90;;;20.32;100.00;33.72;5069527;28;20857;-73
2021/06/21 04:01:01;;;;;;;0.80;0.70;;;19.50;99.90;;;20.28;100.00;1754.25;5071873;28;20443;-72
2021/06/21 04:03:29;;;;;;;0.80;0.70;;;19.60;99.90;;;20.23;100.00;3362.47;5052480;28;20496;-74
2021/06/21 04:05:57;;;;;;;0.77;0.70;;;19.50;99.90;;;20.18;100.00;4922.56;5052480;28;20501;-73
2021/06/21 04:08:26;;;;;;;0.80;0.70;;;19.50;99.90;;;20.28;100.00;6508.94;5065569;28;20497;-73
2021/06/21 04:10:53;;;;;;;0.70;0.70;;;19.50;99.90;;;20.34;100.00;7551.56;5069100;28;20439;-73
2021/06/21 04:13:21;;;;;;;0.70;0.60;;;19.60;99.90;;;20.33;100.00;7705.34;5059211;28;20446;-73
2021/06/21 04:15:49;;;;;;;0.70;0.63;;;19.60;99.90;;;20.18;100.00;8266.97;5057777;28;20482;-73
2021/06/21 04:18:18;;;;;;;0.70;0.60;;;19.50;99.90;;;20.35;100.00;8850.38;5052431;28;20843;-73
2021/06/21 04:20:48;;;;;;;0.70;0.60;;;19.60;99.90;;;20.48;100.00;8401.41;5051453;28;20465;-73
2021/06/21 04:23:16;;;;;;;0.70;0.70;;;19.60;99.90;;;20.28;100.00;7902.03;5059495;28;20499;-73
2021/06/21 04:25:43;;;;;;;0.80;0.70;;;19.60;99.90;;;20.33;100.00;8665.22;5070854;28;20494;-73
2021/06/21 04:28:11;;;;;;;0.80;0.80;;;19.60;99.90;;;20.34;100.00;8285.56;5058545;28;20443;-72
2021/06/21 04:30:39;;;;;;;0.73;0.70;;;19.60;99.90;;;20.46;100.00;8711.53;5057381;28;20522;-73
2021/06/21 04:33:07;;;;;;;0.80;0.70;;;19.70;99.90;;;20.43;100.00;8343.78;5066682;28;20478;-72
2021/06/21 04:35:36;;;;;;;1.03;1.00;;;19.70;99.90;;;20.45;100.00;7907.81;5075755;28;20440;-73
2021/06/21 04:38:04;;;;;;;0.70;0.60;;;19.80;99.90;;;20.57;100.00;6862.84;5068911;28;21007;-72
2021/06/21 04:40:35;;;;;;;0.70;0.70;;;19.70;99.90;;;20.48;100.00;5804.31;5086496;28;20419;-73
2021/06/21 04:43:03;;;;;;;0.70;0.70;;;19.70;99.90;;;20.60;100.00;5262.31;5071414;28;20418;-72
2021/06/21 04:45:31;;;;;;;0.70;0.60;;;19.80;99.90;;;20.53;100.00;3909.72;5070609;28;20450;-72
2021/06/21 04:48:01;;;;;;;0.77;0.70;;;19.80;99.90;;;20.65;100.00;2719.03;5071803;28;20867;-72
2021/06/21 04:50:29;;;;;;;0.70;0.60;;;19.90;99.90;;;20.84;100.00;749.81;5088388;28;20766;-73
2021/06/21 04:52:57;;;;;;;0.80;0.70;;;20.00;99.90;;;20.97;100.00;-2431.25;5071927;28;20462;-72
2021/06/21 04:55:25;;;;;;;0.70;0.70;;;20.10;99.90;;;20.90;100.00;-6904.28;5072305;28;20473;-72
2021/06/21 04:57:54;;;;;;;0.80;0.70;;;20.10;99.90;;;20.89;100.00;-11010.72;5089060;28;20457;-72
2021/06/21 05:00:24;;;;;;;0.80;0.70;;;20.20;99.90;;;20.86;100.00;-14410.09;5072493;28;20756;-71
2021/06/21 05:02:52;;;;;;;1.13;1.03;;;20.20;99.90;;;20.88;100.00;-16912.16;5069886;28;20461;-71
2021/06/21 05:05:21;;;;;;;0.80;0.70;;;20.20;99.90;;;20.90;100.00;-18484.94;5066208;28;20447;-72
2021/06/21 05:07:51;;;;;;;0.70;0.60;;;20.20;99.90;;;20.91;100.00;-20039.06;5072709;28;21002;-70
2021/06/21 05:10:24;;;;;;;0.70;0.60;;;20.20;99.90;;;20.95;100.00;-21249.00;5065890;28;20446;-72
2021/06/21 05:12:52;;;;;;;0.80;0.70;;;20.20;99.90;;;20.88;100.00;-21247.25;5057430;28;20420;-74
2021/06/21 05:15:20;;;;;;;0.70;0.60;;;20.30;99.90;;;20.96;100.00;-21249.28;5051701;28;20778;-72
2021/06/21 05:17:48;;;;;;;0.80;0.70;;;20.30;99.90;;;21.09;100.00;-21252.84;5052427;28;20440;-73
2021/06/21 05:20:16;;;;;;;0.70;0.60;;;20.30;99.90;;;21.13;100.00;-21253.78;5051323;28;20419;-72
2021/06/21 05:22:44;;;;;;;0.70;0.60;;;20.40;99.90;;;21.16;100.00;-21254.75;5053005;28;20497;-71
2021/06/21 05:25:13;;;;;;;0.70;0.60;;;20.40;99.90;;;21.20;100.00;-21255.84;5052522;28;20448;-72
2021/06/21 05:27:42;;;;;;;0.70;0.60;;;20.50;99.90;;;21.20;100.00;-21255.69;5052100;28;20860;-73
2021/06/21 05:30:12;;;;;;;0.70;0.60;;;20.60;99.90;;;21.38;100.00;-21260.47;5068077;28;20510;-73
2021/06/21 05:32:40;;;;;;;0.70;0.60;;;20.60;99.90;;;21.32;100.00;-21258.84;5075253;28;20464;-71
2021/06/21 05:35:11;;;;;;;0.70;0.60;;;20.70;99.90;;;21.50;100.00;-21263.75;5056190;28;20496;-73
2021/06/21 05:37:43;;;;;;;0.70;0.60;;;20.70;99.90;;;21.42;100.00;-21261.56;5059351;28;20451;-72
2021/06/21 05:40:13;;;;;;;0.70;0.63;;;20.70;99.90;;;21.39;100.00;-21260.88;5075980;28;20423;-72
2021/06/21 05:42:42;;;;;;;0.70;0.60;;;20.70;99.90;;;21.53;100.00;-21264.56;5076418;28;20412;-72
2021/06/21 05:45:11;;;;;;;0.70;0.60;;;20.80;99.90;;;21.43;100.00;-21261.84;5073431;28;20490;-72
2021/06/21 05:47:39;;;;;;;0.70;0.70;;;20.80;99.90;;;21.50;100.00;-21263.75;5061511;28;20772;-72
2021/06/21 05:50:08;;;;;;;0.80;0.70;;;20.80;99.90;;;21.69;100.00;-21268.78;5056628;28;20428;-72
2021/06/21 05:52:36;;;;;;;0.70;0.70;;;20.90;99.90;;;21.64;100.00;-21267.56;5076176;28;20423;-71
2021/06/21 05:55:05;;;;;;;0.70;0.60;;;20.90;99.90;;;21.52;100.00;-21264.16;5075180;28;20433;-72
2021/06/21 05:57:32;;;;;;;0.70;0.60;;;20.90;99.90;;;21.65;100.00;-21267.84;5075032;28;20430;-72
2021/06/21 06:00:04;;;;;;;0.70;0.63;;;20.90;99.90;;;21.58;100.00;-21265.94;5075895;28;20427;-72
2021/06/21 06:02:33;;;;;;;0.80;0.70;;;20.90;99.90;;;21.44;100.00;-21262.13;5076105;28;20446;-72
2021/06/21 06:05:00;;;;;;;0.70;0.60;;;20.90;99.90;;;21.70;100.00;-21269.06;5074276;28;20446;-72
2021/06/21 06:07:28;;;;;;;0.80;0.70;;;20.90;99.90;;;21.58;100.00;-21265.94;5056925;28;20442;-72
2021/06/21 06:09:57;;;;;;;0.70;0.60;;;20.90;99.90;;;21.50;100.00;-21263.63;5074424;28;20480;-72
2021/06/21 06:12:25;;;;;;;0.70;0.60;;;20.90;99.90;;;21.69;100.00;-21268.94;5075369;28;20465;-72
2021/06/21 06:14:53;;;;;;;0.70;0.60;;;21.00;99.90;;;21.96;100.00;-21276.00;5075273;28;20415;-72
2021/06/21 06:17:22;;;;;;;0.70;0.60;;;21.10;99.90;;;21.84;100.00;-21272.75;5075441;28;20423;-72
2021/06/21 06:19:50;;;;;;;0.70;0.60;;;21.20;99.90;;;21.81;100.00;-21272.06;5073737;28;20520;-73
2021/06/21 06:22:17;;;;;;;0.70;0.60;;;21.20;99.90;;;21.69;100.00;-21268.78;5055553;28;20413;-73
2021/06/21 06:24:45;;;;;;;0.70;0.70;;;21.10;99.90;;;21.60;100.00;-21266.34;5070654;28;20471;-72
2021/06/21 06:27:13;;;;;;;0.70;0.60;;;21.00;99.90;;;21.39;100.00;-21260.75;5054768;28;20398;-74
2021/06/21 06:29:41;;;;;;;0.70;0.70;;;20.90;99.90;;;21.30;100.00;-21258.28;5058536;28;20439;-73
2021/06/21 06:32:09;;;;;;;0.70;0.60;;;20.80;99.90;;;21.19;100.00;-21255.56;5073003;28;20443;-73
2021/06/21 06:34:38;;;;;;;0.73;0.63;;;20.70;99.90;;;21.20;100.00;-21255.69;5073875;28;20435;-72
2021/06/21 06:37:06;;;;;;;0.70;0.60;;;20.60;99.90;;;21.11;100.00;-21253.38;5075150;28;20534;-73
2021/06/21 06:39:34;;;;;;;0.70;0.60;;;20.50;99.90;;;20.96;100.00;-21249.44;5086854;28;20494;-71
2021/06/21 06:42:01;;;;;;;0.80;0.70;;;20.30;99.90;;;20.63;100.00;-20950.94;5053999;28;20420;-72
2021/06/21 06:44:29;;;;;;;0.70;0.60;;;20.20;99.90;;;20.97;100.00;-18219.06;5053328;28;21007;-72
2021/06/21 06:46:58;;;;;;;0.80;0.60;;;20.10;99.90;;;21.02;100.00;-13164.63;5055088;28;20752;-72
2021/06/21 06:49:26;;;;;;;0.70;0.70;;;20.10;99.90;;;21.06;100.00;-11324.19;5053665;28;20424;-72
2021/06/21 06:51:56;;;;;;;0.80;0.70;;;20.10;99.90;;;21.37;100.00;-11555.03;5054821;28;20523;-72
2021/06/21 06:54:29;;;;;;;0.73;0.70;;;20.20;99.90;;;21.21;100.00;-6657.31;5053575;28;20470;-72
2021/06/21 06:57:00;;;;;;;0.70;0.70;;;20.30;99.90;;;21.72;100.00;-6799.97;5054876;28;20415;-72
2021/06/21 06:59:30;;;;;;;0.80;0.70;;;20.50;99.90;;;21.69;100.00;-4935.41;5072786;28;20860;-72
2021/06/21 07:01:59;;;;;;;0.70;0.60;;;20.70;99.90;;;21.87;100.00;-6096.19;5074553;28;20447;-72
2021/06/21 07:04:29;;;;;;;0.70;0.60;;;20.80;99.90;;;22.63;100.00;-15210.69;5072023;28;20412;-72
2021/06/21 07:07:00;;;;;;;0.77;0.70;;;20.90;99.90;;;21.75;100.00;-12617.69;5063571;28;20940;-72
2021/06/21 07:09:30;;;;;;;0.77;0.70;;;21.00;99.90;;;22.41;100.00;-17617.09;5053854;28;20463;-72
2021/06/21 07:11:58;;;;;;;0.80;0.70;;;21.20;99.90;;;22.11;100.00;-19823.97;5054673;28;20429;-72
2021/06/21 07:14:26;;;;;;;0.80;0.80;;;21.30;99.90;;;22.32;100.00;-21285.56;5053107;28;20464;-72
2021/06/21 07:16:54;;;;;;;0.70;0.60;;;21.50;99.90;;;22.30;100.00;-21285.00;5054286;28;20428;-72
2021/06/21 07:19:22;;;;;;;0.80;0.70;;;21.60;99.90;;;22.65;100.00;-21294.53;5051934;28;20419;-71
2021/06/21 07:21:50;;;;;;;0.80;0.70;;;21.80;99.90;;;22.82;100.00;-21298.88;5070420;28;20770;-73
2021/06/21 07:24:20;;;;;;;0.70;0.60;;;22.00;99.90;;;22.90;100.00;-21301.22;5072086;28;20835;-72
2021/06/21 07:26:50;;;;;;;0.90;0.90;;;22.10;99.90;;;22.45;100.00;-21289.09;5070940;28;20451;-74
2021/06/21 07:29:18;;;;;;;0.70;0.60;;;22.00;99.90;;;22.26;100.00;-21283.91;5072457;28;20406;-72
2021/06/21 07:31:46;;;;;;;0.70;0.60;;;21.80;99.90;;;22.31;100.00;-21285.28;5071296;28;20441;-72
2021/06/21 07:34:14;;;;;;;0.80;0.70;;;21.80;99.90;;;22.23;100.00;-21283.09;5070633;28;20446;-72
2021/06/21 07:36:42;;;;;;;0.70;0.70;;;21.70;99.90;;;22.19;100.00;-21282.28;5070573;28;20430;-72
2021/06/21 07:39:10;;;;;;;0.70;0.60;;;21.70;99.90;;;22.51;100.00;-21290.59;5052703;28;20551;-74
2021/06/21 07:41:39;;;;;;;0.80;0.70;;;21.80;99.90;;;22.52;100.00;-21291.00;5072489;28;20459;-72
2021/06/21 07:44:11;;;;;;;0.70;0.70;;;21.90;99.90;;;23.18;100.00;-21308.41;5071979;28;20415;-73
2021/06/21 07:46:38;;;;;;;0.80;0.70;;;22.10;99.90;;;22.98;100.00;-21303.25;5069729;28;20541;-72
2021/06/21 07:49:06;;;;;;;0.73;0.63;;;22.30;99.90;;;23.39;100.00;-21314.13;5073896;28;20497;-72
2021/06/21 07:51:33;;;;;;;0.70;0.60;;;22.60;99.90;;;23.44;100.00;-21315.34;5073366;28;20451;-71
2021/06/21 07:54:01;;;;;;;0.80;0.60;;;22.80;99.90;;;23.23;100.00;-21309.78;5073507;28;20460;-72
2021/06/21 07:56:28;;;;;;;0.70;0.60;;;23.00;99.90;;;23.07;100.00;-21305.56;5072557;28;20405;-74
2021/06/21 07:58:57;;;;;;;0.70;0.60;;;22.90;99.90;;;22.16;100.00;-21281.47;5073504;28;20398;-73
2021/06/21 08:01:25;;;;;;;0.70;0.60;;;22.40;99.90;;;21.61;100.00;-21266.75;5072838;28;20451;-73
2021/06/21 08:03:56;;;;;;;0.80;0.77;;;21.80;99.90;;;20.95;100.00;-21249.00;5071402;28;20427;-74
2021/06/21 08:06:24;;;;;;;0.80;0.70;;;21.20;99.90;;;20.87;100.00;-21246.84;5073309;28;20565;-74
2021/06/21 08:08:52;;;;;;;0.77;0.70;;;20.80;99.90;;;21.01;100.00;-12202.09;5073389;28;20525;-73
2021/06/21 08:11:19;;;;;;;0.70;0.60;;;20.70;99.90;;;21.21;100.00;3633.84;5072299;28;20415;-74
2021/06/21 08:13:50;;;;;;;0.80;0.70;;;20.60;99.90;;;21.84;100.00;16032.81;5072706;28;20411;-73
2021/06/21 08:16:18;;;;;;;3.43;1.27;;;20.80;99.90;;;21.73;100.00;14949.00;5060577;28;20916;-72
2021/06/21 08:18:46;;;;;;;0.70;0.60;;;20.80;99.90;;;21.74;100.00;13444.41;5052994;28;20413;-72
2021/06/21 08:21:15;;;;;;;0.80;0.70;;;20.80;99.90;;;21.52;100.00;9801.16;5053121;28;20420;-72
2021/06/21 08:23:43;;;;;;;0.70;0.60;;;20.80;99.90;;;21.54;100.00;11428.00;5052856;28;20455;-72
2021/06/21 08:26:12;;;;;;;0.80;0.73;;;20.70;99.90;;;21.33;100.00;8069.06;5067797;28;20550;-73
2021/06/21 08:28:39;;;;;;;0.70;0.60;;;20.70;99.90;;;21.59;100.00;10106.41;5073280;28;20450;-73
2021/06/21 08:31:07;;;;;;;0.80;0.73;;;20.80;99.90;;;21.56;100.00;7299.69;5071347;28;20469;-72
2021/06/21 08:33:36;;;;;;;0.87;0.83;;;20.80;99.90;;;21.34;100.00;6018.50;5072181;28;20942;-73
2021/06/21 08:36:06;;;;;;;0.80;0.70;;;20.90;99.90;;;21.36;100.00;6738.25;5072931;28;20383;-72
2021/06/21 08:38:37;;;;;;;0.70;0.60;;;20.80;99.90;;;21.40;100.00;762.09;5072777;28;20501;-73
2021/06/21 08:41:05;;;;;;;0.70;0.63;;;20.80;99.90;;;21.19;100.00;-311.34;5070933;28;20434;-72
2021/06/21 08:43:34;;;;;;;0.70;0.60;;;20.80;99.90;;;21.33;100.00;-2783.72;5073118;28;20971;-72
2021/06/21 08:46:02;;;;;;;0.80;0.70;;;20.80;99.90;;;21.75;100.00;-11607.84;5061545;28;20464;-72
2021/06/21 08:48:31;;;;;;;0.70;0.60;;;20.90;99.90;;;21.89;100.00;-12189.94;5051645;28;20486;-72
2021/06/21 08:51:01;;;;;;;0.70;0.60;;;21.10;99.90;;;21.87;100.00;-19488.94;5060569;28;20443;-72
2021/06/21 08:53:29;;;;;;;0.70;0.60;;;21.30;99.90;;;21.04;100.00;-21251.47;5072903;28;20483;-72
2021/06/21 08:55:57;;;;;;;0.70;0.60;;;21.10;99.90;;;21.01;100.00;-21250.66;5072640;28;20493;-72
2021/06/21 08:58:25;;;;;;;0.70;0.63;;;20.80;99.90;;;21.02;100.00;-21250.91;5070614;28;20439;-72
2021/06/21 09:00:52;;;;;;;0.90;0.90;;;20.60;99.90;;;21.20;100.00;-21255.84;5065993;28;20819;-72
2021/06/21 09:03:20;;;;;;;0.70;0.63;;;20.50;99.90;;;21.02;100.00;-21250.91;5057474;28;20494;-72
2021/06/21 09:05:48;;;;;;;0.80;0.60;;;20.40;99.90;;;20.51;100.00;-21237.28;5053813;28;20759;-72
2021/06/21 09:08:17;;;;;;;1.20;1.10;;;20.20;99.90;;;19.99;100.00;-21223.47;5055349;28;20460;-72
2021/06/21 09:10:45;;;;;;;0.80;0.60;;;19.80;99.90;;;19.85;100.00;-21219.53;5056905;28;20481;-72
2021/06/21 09:13:15;;;;;;;0.80;0.60;;;19.50;99.90;;;19.88;100.00;-21220.47;5056664;28;20418;-72
2021/06/21 09:15:47;;;;;;;0.73;0.60;;;19.30;99.90;;;19.71;100.00;-21215.97;5056043;28;20498;-72
2021/06/21 09:18:36;;;;;;;0.80;0.70;;;19.20;99.90;;;19.12;100.00;-21200.09;5056539;28;20817;-72
2021/06/21 09:21:27;;;;;;;1.97;1.20;;;18.80;99.90;;;19.02;100.00;-21197.50;5075255;28;20418;-73
2021/06/21 09:24:16;;;;;;;1.20;1.10;;;18.60;99.90;;;19.14;100.00;-20546.22;5076525;28;20460;-72
2021/06/21 09:26:46;;;;;;;0.70;0.60;;;18.60;99.90;;;18.74;100.00;-18609.22;5075843;28;20810;-72
2021/06/21 09:29:14;;;;;;;0.80;0.70;;;18.40;99.90;;;18.93;100.00;-16547.94;5076345;28;20431;-73
2021/06/21 09:31:50;;;;;;;0.80;0.80;;;18.50;99.90;;;19.00;100.00;-16150.34;5074721;28;20492;-72
2021/06/21 09:34:21;;;;;;;0.70;0.60;;;18.50;99.90;;;19.42;100.00;-16381.94;5075252;28;20521;-71
2021/06/21 09:36:49;;;;;;;0.80;0.60;;;18.70;99.90;;;19.55;100.00;-18185.25;5074039;28;20427;-72
2021/06/21 09:39:23;;;;;;;0.70;0.70;;;18.80;99.90;;;19.26;100.00;-21191.72;5075901;28;20992;-72
2021/06/21 09:42:19;;;;;;;0.80;0.60;;;18.90;99.90;;;19.19;100.00;-21202.00;5074664;28;20435;-72
2021/06/21 09:44:51;;;;;;;0.70;0.60;;;18.70;99.90;;;19.21;100.00;-21202.56;5075638;28;20432;-73
2021/06/21 09:47:28;;;;;;;0.70;0.60;;;18.70;99.90;;;19.22;100.00;-21202.69;5054622;28;20816;-72
2021/06/21 09:50:11;;;;;;;0.70;0.60;;;18.70;99.90;;;20.17;100.00;-21228.25;5056173;28;20414;-71
2021/06/21 09:52:52;;;;;;;0.70;0.67;;;19.10;99.90;;;20.86;100.00;-21246.56;5056171;28;20914;-72
2021/06/21 09:55:29;;;;;;;0.70;0.70;;;20.10;99.90;;;21.73;100.00;-21269.88;5075437;28;20560;-72
2021/06/21 09:58:11;;;;;;;0.80;0.70;;;20.80;99.90;;;21.79;100.00;-21271.38;5076256;28;20412;-72
2021/06/21 10:00:45;;;;;;;0.70;0.70;;;21.30;99.90;;;21.49;100.00;-21263.47;5074316;28;20439;-72
2021/06/21 10:03:17;;;;;;;0.73;0.63;;;21.20;99.90;;;21.33;100.00;-21259.09;5075430;28;20394;-73
2021/06/21 10:06:07;;;;;;;0.70;0.60;;;20.90;99.90;;;20.83;100.00;-21245.75;5075436;28;20448;-73
2021/06/21 10:08:42;;;;;;;0.70;0.60;;;20.70;99.90;;;20.54;100.00;-21237.97;5075211;28;20827;-73
2021/06/21 10:11:30;;;;;;;0.80;0.70;;;20.30;99.90;;;20.03;100.00;-21224.44;5075255;28;20411;-72
2021/06/21 10:14:00;;;;;;;0.70;0.60;;;20.00;99.90;;;20.16;100.00;-21228.00;5074293;28;20884;-73
2021/06/21 10:16:28;;;;;;;0.70;0.60;;;19.70;99.90;;;19.92;100.00;-21221.44;5060100;28;20427;-71
2021/06/21 10:18:55;;;;;;;0.70;0.60;;;19.60;99.90;;;20.31;100.00;-21231.81;5055639;28;20408;-72
2021/06/21 10:21:24;;;;;;;0.80;0.70;;;19.70;99.90;;;20.71;100.00;-21242.59;5069786;28;20821;-72
2021/06/21 10:23:53;;;;;;;0.70;0.60;;;20.10;99.90;;;21.22;100.00;-21256.38;5054662;28;20460;-73